createdAt,value
2019-05-12T00:01:54.606Z,4.53
2019-05-12T00:05:00.084Z,4.53
2019-05-12T00:08:08.176Z,4.51
2019-05-12T00:11:12.241Z,4.42
2019-05-12T00:14:18.410Z,4.46
2019-05-12T00:17:23.594Z,4.42
2019-05-12T00:20:28.789Z,4.39
2019-05-12T00:23:38.204Z,4.42
2019-05-12T00:26:43.646Z,4.38
2019-05-12T00:29:48.998Z,4.45
2019-05-12T00:32:54.303Z,4.46
2019-05-12T00:35:59.461Z,4.48
2019-05-12T00:39:08.678Z,4.51
2019-05-12T00:42:14.376Z,4.58
2019-05-12T00:45:19.580Z,4.58
2019-05-12T00:48:24.715Z,4.56
2019-05-12T00:51:29.861Z,4.54
2019-05-12T00:54:35.030Z,4.57
2019-05-12T00:57:40.149Z,4.62
2019-05-12T01:00:45.389Z,4.69
2019-05-12T01:03:50.828Z,4.68
2019-05-12T01:06:58.209Z,4.69
2019-05-12T01:10:04.755Z,4.68
2019-05-12T01:13:10.323Z,4.69
2019-05-12T01:16:15.866Z,4.75
2019-05-12T01:19:21.163Z,4.83
2019-05-12T01:22:27.740Z,4.89
2019-05-12T01:25:33.071Z,4.89
2019-05-12T01:28:38.360Z,4.86
2019-05-12T01:31:55.799Z,4.76
2019-05-12T01:35:00.981Z,4.71
2019-05-12T01:38:07.984Z,4.65
2019-05-12T01:41:13.724Z,4.54
2019-05-12T01:44:19.195Z,4.53
2019-05-12T01:47:24.455Z,4.60
2019-05-12T01:50:29.796Z,4.66
2019-05-12T01:53:37.875Z,4.73
2019-05-12T01:56:42.908Z,4.67
2019-05-12T01:59:48.455Z,4.57
2019-05-12T02:02:53.651Z,4.38
2019-05-12T02:06:01.634Z,4.36
2019-05-12T02:09:10.210Z,4.28
2019-05-12T02:12:15.388Z,4.23
2019-05-12T02:15:21.247Z,4.20
2019-05-12T02:18:28.161Z,4.19
2019-05-12T02:21:33.361Z,4.07
2019-05-12T02:24:39.064Z,4.04
2019-05-12T02:27:44.395Z,4.14
2019-05-12T02:30:50.633Z,4.10
2019-05-12T02:33:55.795Z,4.03
2019-05-12T02:37:00.975Z,4.02
2019-05-12T02:40:07.830Z,4.00
2019-05-12T02:43:15.412Z,4.00
2019-05-12T02:46:19.814Z,3.94
2019-05-12T02:49:24.984Z,3.92
2019-05-12T02:52:30.220Z,4.06
2019-05-12T02:55:35.931Z,3.94
2019-05-12T02:58:45.171Z,3.89
2019-05-12T03:01:49.961Z,3.83
2019-05-12T03:04:55.957Z,3.78
2019-05-12T03:08:04.898Z,3.83
2019-05-12T03:11:09.249Z,3.87
2019-05-12T03:14:15.661Z,3.97
2019-05-12T03:17:24.904Z,3.99
2019-05-12T03:20:28.039Z,3.93
2019-05-12T03:23:35.462Z,4.03
2019-05-12T03:26:40.716Z,4.06
2019-05-12T03:29:45.865Z,4.24
2019-05-12T03:32:51.072Z,4.30
2019-05-12T03:36:00.680Z,4.35
2019-05-12T03:39:04.391Z,4.43
2019-05-12T03:42:09.531Z,4.53
2019-05-12T03:45:15.837Z,4.63
2019-05-12T03:48:21.000Z,4.66
2019-05-12T03:51:26.132Z,4.82
2019-05-12T03:54:31.284Z,4.82
2019-05-12T03:57:38.060Z,4.90
2019-05-12T04:00:44.739Z,4.89
2019-05-12T04:03:50.048Z,4.86
2019-05-12T04:06:55.327Z,4.89
2019-05-12T04:10:04.842Z,5.02
2019-05-12T04:13:08.475Z,5.09
2019-05-12T04:16:16.342Z,5.16
2019-05-12T04:19:20.479Z,5.26
2019-05-12T04:22:25.670Z,5.41
2019-05-12T04:25:46.525Z,5.51
2019-05-12T04:28:37.621Z,5.55
2019-05-12T04:31:44.223Z,5.66
2019-05-12T04:34:49.599Z,5.85
2019-05-12T04:37:55.525Z,6.07
2019-05-12T04:41:01.876Z,6.02
2019-05-12T04:44:07.034Z,6.10
2019-05-12T04:47:14.544Z,6.16
2019-05-12T04:50:20.091Z,6.27
2019-05-12T04:53:25.568Z,6.31
2019-05-12T04:56:35.855Z,6.36
2019-05-12T04:59:40.033Z,6.53
2019-05-12T05:02:45.753Z,6.72
2019-05-12T05:05:51.215Z,6.90
2019-05-12T05:08:56.411Z,7.13
2019-05-12T05:12:04.421Z,7.45
2019-05-12T05:15:08.929Z,7.71
2019-05-12T05:18:14.056Z,7.99
2019-05-12T05:21:19.230Z,7.84
2019-05-12T05:24:24.479Z,7.89
2019-05-12T05:27:29.645Z,8.04
2019-05-12T05:30:34.828Z,8.19
2019-05-12T05:33:39.994Z,7.96
2019-05-12T05:36:45.104Z,8.08
2019-05-12T05:39:51.322Z,8.96
2019-05-12T05:42:57.754Z,9.35
2019-05-12T05:46:07.713Z,9.79
2019-05-12T05:49:09.695Z,9.64
2019-05-12T05:52:15.165Z,9.56
2019-05-12T05:55:20.576Z,9.50
2019-05-12T05:58:26.341Z,9.53
2019-05-12T06:01:31.519Z,10.03
2019-05-12T06:04:39.030Z,10.81
2019-05-12T06:07:44.305Z,13.18
2019-05-12T06:10:49.666Z,14.71
2019-05-12T06:13:54.766Z,14.73
2019-05-12T06:16:59.995Z,16.01
2019-05-12T06:20:05.372Z,15.34
2019-05-12T06:23:10.609Z,15.56
2019-05-12T06:26:21.283Z,13.94
2019-05-12T06:29:24.923Z,13.05
2019-05-12T06:32:29.526Z,11.92
2019-05-12T06:35:40.635Z,12.26
2019-05-12T06:38:43.465Z,12.62
2019-05-12T06:41:48.802Z,13.37
2019-05-12T06:44:57.027Z,12.63
2019-05-12T06:48:03.237Z,12.38
2019-05-12T06:51:09.211Z,12.14
2019-05-12T06:54:15.225Z,12.30
2019-05-12T06:57:25.347Z,12.99
2019-05-12T07:00:30.919Z,12.44
2019-05-12T07:03:37.148Z,13.16
2019-05-12T07:06:41.065Z,12.93
2019-05-12T07:09:53.772Z,12.45
2019-05-12T07:13:01.678Z,11.73
2019-05-12T07:16:19.227Z,12.08
2019-05-12T07:19:22.644Z,12.27
2019-05-12T07:22:31.844Z,12.62
2019-05-12T07:25:36.868Z,13.41
2019-05-12T07:28:43.240Z,13.25
2019-05-12T07:31:48.032Z,13.58
2019-05-12T07:34:54.416Z,13.01
2019-05-12T07:37:59.776Z,13.00
2019-05-12T07:41:06.800Z,13.84
2019-05-12T07:44:14.362Z,12.57
2019-05-12T07:47:25.293Z,11.54
2019-05-12T07:50:27.885Z,11.82
2019-05-12T07:53:33.867Z,12.19
2019-05-12T07:56:41.037Z,12.43
2019-05-12T07:59:45.979Z,11.78
2019-05-12T08:02:51.146Z,11.51
2019-05-12T08:06:00.029Z,12.19
2019-05-12T08:09:05.832Z,12.31
2019-05-12T08:12:19.084Z,13.70
2019-05-12T08:15:17.895Z,12.79
2019-05-12T08:18:24.629Z,11.84
2019-05-12T08:21:34.794Z,11.69
2019-05-12T08:24:42.833Z,12.00
2019-05-12T08:27:45.239Z,12.46
2019-05-12T08:30:52.155Z,13.23
2019-05-12T08:33:57.902Z,12.79
2019-05-12T08:37:04.365Z,12.38
2019-05-12T08:40:09.755Z,13.14
2019-05-12T08:43:15.099Z,13.59
2019-05-12T08:46:20.276Z,12.34
2019-05-12T08:49:25.455Z,11.89
2019-05-12T08:52:36.314Z,12.36
2019-05-12T08:55:37.670Z,12.80
2019-05-12T08:58:48.253Z,12.42
2019-05-12T09:01:49.792Z,12.35
2019-05-12T09:04:55.721Z,11.54
2019-05-12T09:08:03.640Z,11.89
2019-05-12T09:11:09.617Z,12.57
2019-05-12T09:14:14.803Z,13.49
2019-05-12T09:17:19.935Z,12.92
2019-05-12T09:20:25.088Z,11.96
2019-05-12T09:23:32.785Z,12.16
2019-05-12T09:26:37.118Z,13.19
2019-05-12T09:29:43.589Z,13.25
2019-05-12T09:32:50.408Z,12.38
2019-05-12T09:35:55.911Z,12.62
2019-05-12T09:39:02.075Z,13.17
2019-05-12T09:42:07.962Z,12.81
2019-05-12T09:45:13.772Z,13.10
2019-05-12T09:48:19.235Z,12.62
2019-05-12T09:51:24.407Z,12.49
2019-05-12T09:54:40.296Z,12.49
2019-05-12T09:57:40.577Z,13.14
2019-05-12T10:00:43.623Z,13.09
2019-05-12T10:03:49.063Z,12.59
2019-05-12T10:06:54.322Z,12.72
2019-05-12T10:10:00.556Z,13.15
2019-05-12T10:13:05.760Z,13.30
2019-05-12T10:16:13.296Z,13.75
2019-05-12T10:19:17.816Z,13.63
2019-05-12T10:22:24.628Z,13.27
2019-05-12T10:25:30.744Z,13.45
2019-05-12T10:28:36.121Z,13.61
2019-05-12T10:31:41.278Z,13.40
2019-05-12T10:34:46.457Z,13.12
2019-05-12T10:37:53.649Z,13.48
2019-05-12T10:40:58.527Z,13.97
2019-05-12T10:44:04.104Z,14.44
2019-05-12T10:47:09.359Z,14.43
2019-05-12T10:50:14.861Z,14.05
2019-05-12T10:53:19.998Z,13.96
2019-05-12T10:56:25.167Z,14.01
2019-05-12T10:59:33.387Z,13.96
2019-05-12T11:02:37.371Z,13.75
2019-05-12T11:05:44.054Z,13.85
2019-05-12T11:08:51.204Z,13.95
2019-05-12T11:11:57.823Z,14.35
2019-05-12T11:15:06.715Z,14.18
2019-05-12T11:18:20.513Z,14.19
2019-05-12T11:21:23.226Z,14.73
2019-05-12T11:24:28.364Z,15.45
2019-05-12T11:27:34.559Z,15.46
2019-05-12T11:30:39.813Z,15.12
2019-05-12T11:33:44.958Z,14.57
2019-05-12T11:36:50.492Z,13.86
2019-05-12T11:39:55.623Z,13.70
2019-05-12T11:43:01.756Z,13.65
2019-05-12T11:46:08.419Z,13.56
2019-05-12T11:49:14.607Z,13.03
2019-05-12T11:52:19.768Z,12.71
2019-05-12T11:55:29.785Z,12.94
2019-05-12T11:58:33.500Z,12.70
2019-05-12T12:01:39.676Z,12.70
2019-05-12T12:04:46.034Z,12.59
2019-05-12T12:07:52.940Z,12.46
2019-05-12T12:10:58.106Z,12.91
2019-05-12T12:14:06.374Z,13.15
2019-05-12T12:17:10.164Z,13.50
2019-05-12T12:20:22.246Z,13.93
2019-05-12T12:23:24.358Z,14.65
2019-05-12T12:26:30.612Z,15.14
2019-05-12T12:29:39.108Z,14.80
2019-05-12T12:32:44.415Z,14.10
2019-05-12T12:35:50.498Z,13.45
2019-05-12T12:38:56.462Z,13.12
2019-05-12T12:42:01.688Z,13.17
2019-05-12T12:45:44.385Z,12.90
2019-05-12T12:48:49.534Z,13.17
2019-05-12T12:51:54.698Z,13.64
2019-05-12T12:55:08.309Z,13.66
2019-05-12T12:58:13.954Z,13.67
2019-05-12T13:01:26.737Z,13.58
2019-05-12T13:04:28.520Z,13.31
2019-05-12T13:07:33.728Z,13.68
2019-05-12T13:10:40.550Z,14.27
2019-05-12T13:13:45.825Z,14.29
2019-05-12T13:16:54.704Z,13.70
2019-05-12T13:19:58.863Z,13.74
2019-05-12T13:23:04.285Z,13.56
2019-05-12T13:26:09.527Z,13.67
2019-05-12T13:29:14.758Z,13.44
2019-05-12T13:32:23.626Z,13.74
2019-05-12T13:35:26.840Z,13.64
2019-05-12T13:38:38.294Z,13.84
2019-05-12T13:41:39.082Z,14.00
2019-05-12T13:44:44.298Z,13.91
2019-05-12T13:47:49.490Z,14.33
2019-05-12T13:51:07.719Z,15.12
2019-05-12T13:54:03.733Z,15.41
2019-05-12T13:57:11.782Z,15.72
2019-05-12T14:00:15.733Z,15.72
2019-05-12T14:03:20.995Z,15.30
2019-05-12T14:06:32.207Z,15.07
2019-05-12T14:09:35.755Z,14.43
2019-05-12T14:12:43.954Z,14.10
2019-05-12T14:15:49.693Z,14.13
2019-05-12T14:18:57.121Z,13.74
2019-05-12T14:22:03.540Z,13.71
2019-05-12T14:25:09.368Z,13.84
2019-05-12T14:28:16.725Z,14.18
2019-05-12T14:31:27.498Z,14.28
2019-05-12T14:34:28.530Z,14.98
2019-05-12T14:37:33.795Z,15.00
2019-05-12T14:40:38.974Z,15.18
2019-05-12T14:43:47.642Z,14.80
2019-05-12T14:46:53.786Z,14.37
2019-05-12T14:49:59.273Z,14.20
2019-05-12T14:53:04.448Z,13.91
2019-05-12T14:56:09.663Z,14.23
2019-05-12T14:59:17.017Z,14.88
2019-05-12T15:02:27.703Z,14.54
2019-05-12T15:05:29.209Z,14.47
2019-05-12T15:08:37.177Z,14.72
2019-05-12T15:11:43.563Z,14.50
2019-05-12T15:14:48.120Z,15.01
2019-05-12T15:17:56.678Z,14.65
2019-05-12T15:21:03.428Z,14.38
2019-05-12T15:24:09.298Z,13.70
2019-05-12T15:27:15.064Z,13.59
2019-05-12T15:30:24.482Z,13.30
2019-05-12T15:33:28.035Z,13.29
2019-05-12T15:36:33.649Z,13.12
2019-05-12T15:39:38.887Z,13.17
2019-05-12T15:42:45.246Z,13.18
2019-05-12T15:45:55.305Z,13.64
2019-05-12T15:48:57.639Z,14.01
2019-05-12T15:52:03.512Z,14.17
2019-05-12T15:55:09.545Z,13.94
2019-05-12T15:58:14.772Z,14.28
2019-05-12T16:01:20.098Z,14.53
2019-05-12T16:04:26.418Z,14.63
2019-05-12T16:07:37.840Z,14.71
2019-05-12T16:10:40.773Z,14.42
2019-05-12T16:13:53.717Z,13.74
2019-05-12T16:16:53.548Z,13.82
2019-05-12T16:19:58.993Z,13.53
2019-05-12T16:23:04.269Z,13.53
2019-05-12T16:26:12.562Z,13.65
2019-05-12T16:29:16.360Z,13.80
2019-05-12T16:32:27.076Z,13.75
2019-05-12T16:35:31.743Z,13.29
2019-05-12T16:38:36.205Z,13.36
2019-05-12T16:41:43.739Z,13.02
2019-05-12T16:44:48.294Z,13.26
2019-05-12T16:47:59.354Z,13.21
2019-05-12T16:51:03.288Z,13.14
2019-05-12T16:54:08.214Z,13.00
2019-05-12T16:57:17.948Z,13.22
2019-05-12T17:00:20.827Z,13.16
2019-05-12T17:03:27.206Z,13.02
2019-05-12T17:06:35.012Z,12.86
2019-05-12T17:09:39.564Z,12.77
2019-05-12T17:12:48.112Z,12.69
2019-05-12T17:15:59.841Z,12.69
2019-05-12T17:19:06.250Z,12.36
2019-05-12T17:22:08.525Z,12.30
2019-05-12T17:25:15.481Z,12.41
2019-05-12T17:28:21.036Z,12.36
2019-05-12T17:31:27.580Z,12.38
2019-05-12T17:34:33.955Z,12.01
2019-05-12T17:37:41.403Z,11.88
2019-05-12T17:40:50.230Z,11.72
2019-05-12T17:44:00.891Z,11.56
2019-05-12T17:47:00.211Z,11.41
2019-05-12T17:50:10.294Z,11.32
2019-05-12T17:53:17.696Z,11.18
2019-05-12T17:56:25.076Z,11.28
2019-05-12T17:59:29.482Z,11.31
2019-05-12T18:02:34.860Z,10.94
2019-05-12T18:05:42.467Z,10.89
2019-05-12T18:08:46.867Z,10.80
2019-05-12T18:11:56.127Z,10.75
2019-05-12T18:14:58.947Z,10.77
2019-05-12T18:18:05.647Z,10.59
2019-05-12T18:21:14.832Z,10.68
2019-05-12T18:24:17.856Z,10.40
2019-05-12T18:27:23.010Z,10.30
2019-05-12T18:30:28.303Z,10.19
2019-05-12T18:33:37.180Z,10.21
2019-05-12T18:36:40.443Z,10.01
2019-05-12T18:39:45.627Z,9.89
2019-05-12T18:42:50.770Z,9.67
2019-05-12T18:46:04.837Z,9.56
2019-05-12T18:49:11.965Z,9.48
2019-05-12T18:52:11.447Z,9.39
2019-05-12T18:55:17.727Z,9.08
2019-05-12T18:58:30.613Z,9.24
2019-05-12T19:01:33.416Z,8.98
2019-05-12T19:04:39.718Z,8.93
2019-05-12T19:07:45.185Z,8.74
2019-05-12T19:10:51.936Z,8.76
2019-05-12T19:13:58.936Z,8.61
2019-05-12T19:17:04.315Z,8.62
2019-05-12T19:20:09.779Z,8.50
2019-05-12T19:23:15.322Z,8.15
2019-05-12T19:26:20.579Z,7.96
2019-05-12T19:29:29.768Z,8.00
2019-05-12T19:32:33.616Z,7.89
2019-05-12T19:35:39.651Z,7.68
2019-05-12T19:38:44.851Z,7.98
2019-05-12T19:41:50.101Z,7.60
2019-05-12T19:44:59.319Z,7.61
2019-05-12T19:48:04.070Z,7.41
2019-05-12T19:51:20.868Z,7.35
2019-05-12T19:54:19.350Z,7.27
2019-05-12T19:57:26.117Z,7.17
2019-05-12T20:00:29.705Z,6.84
2019-05-12T20:03:34.927Z,6.87
2019-05-12T20:06:43.981Z,6.79
2019-05-12T20:09:55.897Z,6.76
2019-05-12T20:12:57.149Z,6.67
2019-05-12T20:16:02.405Z,6.58
2019-05-12T20:19:08.442Z,6.73
2019-05-12T20:22:13.910Z,6.66
2019-05-12T20:25:19.194Z,6.49
2019-05-12T20:28:24.541Z,6.59
2019-05-12T20:31:29.897Z,6.55
2019-05-12T20:34:48.430Z,6.40
2019-05-12T20:37:52.735Z,6.39
2019-05-12T20:40:50.465Z,6.31
2019-05-12T20:43:55.666Z,6.49
2019-05-12T20:47:06.414Z,6.37
2019-05-12T20:50:10.699Z,6.37
2019-05-12T20:53:16.102Z,6.12
2019-05-12T20:56:24.375Z,5.94
2019-05-12T20:59:28.479Z,5.85
2019-05-12T21:02:33.886Z,5.76
2019-05-12T21:05:40.260Z,5.60
2019-05-12T21:08:53.120Z,5.47
2019-05-12T21:11:54.763Z,5.12
2019-05-12T21:15:13.711Z,5.32
2019-05-12T21:18:11.171Z,5.26
2019-05-12T21:21:16.462Z,5.35
2019-05-12T21:24:24.295Z,5.16
2019-05-12T21:27:28.738Z,5.12
2019-05-12T21:30:34.015Z,5.13
2019-05-12T21:33:41.594Z,4.93
2019-05-12T21:36:46.135Z,4.97
2019-05-12T21:39:51.262Z,4.82
2019-05-12T21:42:56.382Z,4.64
2019-05-12T21:46:10.171Z,4.86
2019-05-12T21:49:11.893Z,4.90
2019-05-12T21:52:15.306Z,4.92
2019-05-12T21:55:24.057Z,4.76
2019-05-12T21:58:29.646Z,4.47
2019-05-12T22:01:43.480Z,4.48
2019-05-12T22:04:45.018Z,4.36
2019-05-12T22:07:49.261Z,4.37
2019-05-12T22:10:54.632Z,4.45
2019-05-12T22:14:00.368Z,4.33
2019-05-12T22:17:07.321Z,4.42
2019-05-12T22:20:15.455Z,4.59
2019-05-12T22:23:19.410Z,4.28
2019-05-12T22:26:24.565Z,4.26
2019-05-12T22:29:31.384Z,4.44
2019-05-12T22:32:36.560Z,4.49
2019-05-12T22:35:44.130Z,4.46
2019-05-12T22:38:52.042Z,4.35
2019-05-12T22:41:55.528Z,4.32
2019-05-12T22:45:01.842Z,4.36
2019-05-12T22:48:07.582Z,4.23
2019-05-12T22:51:18.716Z,4.12
2019-05-12T22:54:19.726Z,4.00
2019-05-12T22:57:29.177Z,4.52
2019-05-12T23:00:34.203Z,4.26
2019-05-12T23:03:43.200Z,4.04
2019-05-12T23:06:46.837Z,3.92
2019-05-12T23:09:54.458Z,3.78
2019-05-12T23:13:01.934Z,3.77
2019-05-12T23:16:06.432Z,3.78
2019-05-12T23:19:12.389Z,3.71
2019-05-12T23:22:18.457Z,3.63
2019-05-12T23:25:24.433Z,3.61
2019-05-12T23:28:29.831Z,3.61
2019-05-12T23:31:35.048Z,3.60
2019-05-12T23:34:45.003Z,3.61
2019-05-12T23:37:47.068Z,3.67
2019-05-12T23:40:53.759Z,3.59
2019-05-12T23:44:00.746Z,3.57
2019-05-12T23:47:05.881Z,3.61
2019-05-12T23:50:13.896Z,3.44
2019-05-12T23:53:18.052Z,3.90
2019-05-12T23:56:23.314Z,3.94
2019-05-12T23:59:28.461Z,4.12
